sensor_id;sensor_type;location;lat;lon;timestamp;pressure;altitude;pressure_sealevel;temperature;humidity
67099;BME280;54288;53.046;5.668;2023-09-08T00:00:01;101876.50;;;21.24;90.49
67099;BME280;54288;53.046;5.668;2023-09-08T00:02:28;101870.47;;;21.20;90.29
67099;BME280;54288;53.046;5.668;2023-09-08T00:04:54;101873.06;;;21.22;90.18
67099;BME280;54288;53.046;5.668;2023-09-08T00:07:20;101878.28;;;21.25;90.55
67099;BME280;54288;53.046;5.668;2023-09-08T00:09:46;101879.28;;;21.22;90.93
67099;BME280;54288;53.046;5.668;2023-09-08T00:12:12;101870.56;;;21.19;91.18
67099;BME280;54288;53.046;5.668;2023-09-08T00:14:38;101855.16;;;21.07;91.24
67099;BME280;54288;53.046;5.668;2023-09-08T00:17:04;101875.25;;;21.14;91.25
67099;BME280;54288;53.046;5.668;2023-09-08T00:19:29;101867.03;;;21.18;90.87
67099;BME280;54288;53.046;5.668;2023-09-08T00:21:56;101869.94;;;21.14;91.00
67099;BME280;54288;53.046;5.668;2023-09-08T00:24:21;101870.94;;;21.11;91.02
67099;BME280;54288;53.046;5.668;2023-09-08T00:26:47;101875.53;;;21.08;91.32
67099;BME280;54288;53.046;5.668;2023-09-08T00:29:13;101867.75;;;21.03;91.55
67099;BME280;54288;53.046;5.668;2023-09-08T00:31:38;101865.47;;;20.96;91.32
67099;BME280;54288;53.046;5.668;2023-09-08T00:34:04;101860.41;;;20.90;91.67
67099;BME280;54288;53.046;5.668;2023-09-08T00:36:29;101864.72;;;20.92;91.87
67099;BME280;54288;53.046;5.668;2023-09-08T00:38:55;101869.97;;;20.94;92.09
67099;BME280;54288;53.046;5.668;2023-09-08T00:41:20;101868.59;;;20.85;92.59
67099;BME280;54288;53.046;5.668;2023-09-08T00:43:46;101872.97;;;20.86;92.67
67099;BME280;54288;53.046;5.668;2023-09-08T00:46:15;101863.47;;;20.81;92.87
67099;BME280;54288;53.046;5.668;2023-09-08T00:48:41;101863.41;;;20.82;92.83
67099;BME280;54288;53.046;5.668;2023-09-08T00:51:08;101868.03;;;20.79;93.23
67099;BME280;54288;53.046;5.668;2023-09-08T00:53:36;101863.75;;;20.75;93.76
67099;BME280;54288;53.046;5.668;2023-09-08T00:56:02;101862.94;;;20.73;93.90
67099;BME280;54288;53.046;5.668;2023-09-08T00:58:29;101853.59;;;20.64;94.13
67099;BME280;54288;53.046;5.668;2023-09-08T01:00:55;101870.31;;;20.68;94.31
67099;BME280;54288;53.046;5.668;2023-09-08T01:03:23;101865.00;;;20.68;94.31
67099;BME280;54288;53.046;5.668;2023-09-08T01:05:50;101872.16;;;20.66;94.34
67099;BME280;54288;53.046;5.668;2023-09-08T01:08:16;101878.41;;;20.65;94.48
67099;BME280;54288;53.046;5.668;2023-09-08T01:10:43;101869.66;;;20.63;94.60
67099;BME280;54288;53.046;5.668;2023-09-08T01:13:09;101873.25;;;20.62;94.53
67099;BME280;54288;53.046;5.668;2023-09-08T01:15:34;101865.50;;;20.56;95.05
67099;BME280;54288;53.046;5.668;2023-09-08T01:18:00;101877.09;;;20.55;95.39
67099;BME280;54288;53.046;5.668;2023-09-08T01:20:31;101864.22;;;20.46;95.50
67099;BME280;54288;53.046;5.668;2023-09-08T01:23:22;101876.59;;;20.47;95.92
67099;BME280;54288;53.046;5.668;2023-09-08T01:25:57;101879.31;;;20.45;95.74
67099;BME280;54288;53.046;5.668;2023-09-08T01:28:26;101883.63;;;20.48;95.80
67099;BME280;54288;53.046;5.668;2023-09-08T01:30:54;101880.25;;;20.44;96.01
67099;BME280;54288;53.046;5.668;2023-09-08T01:33:22;101848.16;;;20.29;96.50
67099;BME280;54288;53.046;5.668;2023-09-08T01:35:48;101877.00;;;20.38;96.72
67099;BME280;54288;53.046;5.668;2023-09-08T01:38:14;101865.06;;;20.28;96.96
67099;BME280;54288;53.046;5.668;2023-09-08T01:40:39;101884.19;;;20.36;97.00
67099;BME280;54288;53.046;5.668;2023-09-08T01:43:05;101876.25;;;20.34;97.26
67099;BME280;54288;53.046;5.668;2023-09-08T01:45:30;101879.09;;;20.31;97.35
67099;BME280;54288;53.046;5.668;2023-09-08T01:47:56;101872.81;;;20.32;97.56
67099;BME280;54288;53.046;5.668;2023-09-08T01:50:21;101868.63;;;20.27;97.83
67099;BME280;54288;53.046;5.668;2023-09-08T01:52:49;101868.78;;;20.24;98.26
67099;BME280;54288;53.046;5.668;2023-09-08T01:55:15;101852.34;;;20.14;98.45
67099;BME280;54288;53.046;5.668;2023-09-08T01:57:42;101860.25;;;20.16;98.60
67099;BME280;54288;53.046;5.668;2023-09-08T02:00:09;101868.31;;;20.14;98.92
67099;BME280;54288;53.046;5.668;2023-09-08T02:02:35;101853.63;;;20.04;98.90
67099;BME280;54288;53.046;5.668;2023-09-08T02:05:00;101860.66;;;20.07;99.39
67099;BME280;54288;53.046;5.668;2023-09-08T02:07:26;101865.09;;;20.06;99.48
67099;BME280;54288;53.046;5.668;2023-09-08T02:09:51;101859.03;;;20.03;99.42
67099;BME280;54288;53.046;5.668;2023-09-08T02:12:17;101864.59;;;19.97;99.73
67099;BME280;54288;53.046;5.668;2023-09-08T02:14:43;101842.59;;;19.93;99.54
67099;BME280;54288;53.046;5.668;2023-09-08T02:17:08;101851.38;;;19.95;99.59
67099;BME280;54288;53.046;5.668;2023-09-08T02:19:34;101850.38;;;19.98;99.59
67099;BME280;54288;53.046;5.668;2023-09-08T02:21:59;101854.97;;;19.94;99.74
67099;BME280;54288;53.046;5.668;2023-09-08T02:24:25;101850.69;;;19.90;100.00
67099;BME280;54288;53.046;5.668;2023-09-08T02:26:50;101854.50;;;19.85;100.00
67099;BME280;54288;53.046;5.668;2023-09-08T02:29:17;101859.50;;;19.92;100.00
67099;BME280;54288;53.046;5.668;2023-09-08T02:31:42;101852.56;;;19.88;99.97
67099;BME280;54288;53.046;5.668;2023-09-08T02:34:08;101855.22;;;19.88;100.00
67099;BME280;54288;53.046;5.668;2023-09-08T02:36:34;101850.09;;;19.84;100.00
67099;BME280;54288;53.046;5.668;2023-09-08T02:38:59;101852.88;;;19.81;100.00
67099;BME280;54288;53.046;5.668;2023-09-08T02:41:25;101852.88;;;19.81;100.00
67099;BME280;54288;53.046;5.668;2023-09-08T02:43:50;101854.59;;;19.82;100.00
67099;BME280;54288;53.046;5.668;2023-09-08T02:46:16;101840.84;;;19.72;100.00
67099;BME280;54288;53.046;5.668;2023-09-08T02:48:42;101854.69;;;19.80;100.00
67099;BME280;54288;53.046;5.668;2023-09-08T02:51:08;101841.09;;;19.66;100.00
67099;BME280;54288;53.046;5.668;2023-09-08T02:53:33;101849.69;;;19.73;100.00
67099;BME280;54288;53.046;5.668;2023-09-08T02:55:59;101848.91;;;19.71;100.00
67099;BME280;54288;53.046;5.668;2023-09-08T02:58:26;101850.53;;;19.73;100.00
67099;BME280;54288;53.046;5.668;2023-09-08T03:00:53;101840.25;;;19.66;100.00
67099;BME280;54288;53.046;5.668;2023-09-08T03:03:19;101829.22;;;19.55;100.00
67099;BME280;54288;53.046;5.668;2023-09-08T03:05:45;101848.50;;;19.60;100.00
67099;BME280;54288;53.046;5.668;2023-09-08T03:08:11;101833.91;;;19.48;100.00
67099;BME280;54288;53.046;5.668;2023-09-08T03:10:36;101836.50;;;19.50;100.00
67099;BME280;54288;53.046;5.668;2023-09-08T03:13:05;101843.53;;;19.51;100.00
67099;BME280;54288;53.046;5.668;2023-09-08T03:15:31;101834.34;;;19.38;100.00
67099;BME280;54288;53.046;5.668;2023-09-08T03:17:58;101817.69;;;19.34;100.00
67099;BME280;54288;53.046;5.668;2023-09-08T03:20:27;101828.22;;;19.36;100.00
67099;BME280;54288;53.046;5.668;2023-09-08T03:22:54;101836.97;;;19.39;100.00
67099;BME280;54288;53.046;5.668;2023-09-08T03:25:20;101834.53;;;19.33;100.00
67099;BME280;54288;53.046;5.668;2023-09-08T03:27:46;101826.50;;;19.35;100.00
67099;BME280;54288;53.046;5.668;2023-09-08T03:30:11;101824.81;;;19.32;100.00
67099;BME280;54288;53.046;5.668;2023-09-08T03:32:37;101820.59;;;19.28;100.00
67099;BME280;54288;53.046;5.668;2023-09-08T03:35:04;101827.72;;;19.26;100.00
67099;BME280;54288;53.046;5.668;2023-09-08T03:37:34;101819.09;;;19.21;100.00
67099;BME280;54288;53.046;5.668;2023-09-08T03:40:00;101804.97;;;19.19;100.00
67099;BME280;54288;53.046;5.668;2023-09-08T03:42:25;101822.41;;;19.26;100.00
67099;BME280;54288;53.046;5.668;2023-09-08T03:44:51;101826.81;;;19.27;100.00
67099;BME280;54288;53.046;5.668;2023-09-08T03:47:16;101825.06;;;19.26;100.00
67099;BME280;54288;53.046;5.668;2023-09-08T03:49:42;101814.66;;;19.22;100.00
67099;BME280;54288;53.046;5.668;2023-09-08T03:52:08;101815.72;;;19.16;100.00
67099;BME280;54288;53.046;5.668;2023-09-08T03:54:33;101819.97;;;19.20;100.00
67099;BME280;54288;53.046;5.668;2023-09-08T03:56:59;101817.47;;;19.17;100.00
67099;BME280;54288;53.046;5.668;2023-09-08T03:59:24;101828.72;;;19.24;100.00
67099;BME280;54288;53.046;5.668;2023-09-08T04:01:50;101829.66;;;19.23;100.00
67099;BME280;54288;53.046;5.668;2023-09-08T04:04:16;101822.09;;;19.12;100.00
67099;BME280;54288;53.046;5.668;2023-09-08T04:06:41;101818.31;;;19.18;100.00
67099;BME280;54288;53.046;5.668;2023-09-08T04:09:07;101810.00;;;19.05;100.00
67099;BME280;54288;53.046;5.668;2023-09-08T04:11:32;101820.28;;;19.13;100.00
67099;BME280;54288;53.046;5.668;2023-09-08T04:13:58;101806.66;;;19.00;100.00
67099;BME280;54288;53.046;5.668;2023-09-08T04:16:26;101813.38;;;19.09;100.00
67099;BME280;54288;53.046;5.668;2023-09-08T04:18:51;101808.06;;;19.09;100.00
67099;BME280;54288;53.046;5.668;2023-09-08T04:21:17;101809.13;;;19.05;100.00
67099;BME280;54288;53.046;5.668;2023-09-08T04:23:43;101801.25;;;19.02;100.00
67099;BME280;54288;53.046;5.668;2023-09-08T04:26:08;101798.75;;;18.99;100.00
67099;BME280;54288;53.046;5.668;2023-09-08T04:28:34;101804.09;;;18.97;100.00
67099;BME280;54288;53.046;5.668;2023-09-08T04:31:00;101801.41;;;18.99;100.00
67099;BME280;54288;53.046;5.668;2023-09-08T04:33:25;101803.25;;;18.97;100.00
67099;BME280;54288;53.046;5.668;2023-09-08T04:35:51;101804.84;;;19.01;100.00
67099;BME280;54288;53.046;5.668;2023-09-08T04:38:16;101801.66;;;18.93;100.00
67099;BME280;54288;53.046;5.668;2023-09-08T04:40:45;101814.78;;;18.96;100.00
67099;BME280;54288;53.046;5.668;2023-09-08T04:43:10;101798.94;;;18.94;100.00
67099;BME280;54288;53.046;5.668;2023-09-08T04:45:37;101810.41;;;18.95;100.00
67099;BME280;54288;53.046;5.668;2023-09-08T04:48:03;101800.81;;;18.91;100.00
67099;BME280;54288;53.046;5.668;2023-09-08T04:50:29;101806.22;;;18.89;100.00
67099;BME280;54288;53.046;5.668;2023-09-08T04:52:55;101789.66;;;18.83;100.00
67099;BME280;54288;53.046;5.668;2023-09-08T04:55:20;101800.31;;;18.81;100.00
67099;BME280;54288;53.046;5.668;2023-09-08T04:57:46;101800.25;;;18.83;100.00
67099;BME280;54288;53.046;5.668;2023-09-08T05:00:12;101805.53;;;18.84;100.00
67099;BME280;54288;53.046;5.668;2023-09-08T05:02:38;101799.47;;;18.81;100.00
67099;BME280;54288;53.046;5.668;2023-09-08T05:05:03;101809.25;;;18.79;100.00
67099;BME280;54288;53.046;5.668;2023-09-08T05:07:29;101799.03;;;18.70;100.00
67099;BME280;54288;53.046;5.668;2023-09-08T05:09:55;101797.41;;;18.66;100.00
67099;BME280;54288;53.046;5.668;2023-09-08T05:12:20;101812.06;;;18.76;100.00
67099;BME280;54288;53.046;5.668;2023-09-08T05:14:46;101809.50;;;18.73;100.00
67099;BME280;54288;53.046;5.668;2023-09-08T05:17:11;101802.59;;;18.69;100.00
67099;BME280;54288;53.046;5.668;2023-09-08T05:19:40;101809.59;;;18.71;100.00
67099;BME280;54288;53.046;5.668;2023-09-08T05:22:06;101798.28;;;18.66;100.00
67099;BME280;54288;53.046;5.668;2023-09-08T05:24:34;101805.31;;;18.67;100.00
67099;BME280;54288;53.046;5.668;2023-09-08T05:26:59;101817.69;;;18.67;100.00
67099;BME280;54288;53.046;5.668;2023-09-08T05:29:25;101804.56;;;18.64;100.00
67099;BME280;54288;53.046;5.668;2023-09-08T05:31:51;101807.28;;;18.62;100.00
67099;BME280;54288;53.046;5.668;2023-09-08T05:34:17;101816.84;;;18.66;100.00
67099;BME280;54288;53.046;5.668;2023-09-08T05:36:42;101807.44;;;18.58;100.00
67099;BME280;54288;53.046;5.668;2023-09-08T05:39:08;101815.19;;;18.64;100.00
67099;BME280;54288;53.046;5.668;2023-09-08T05:41:34;101816.78;;;18.68;100.00
67099;BME280;54288;53.046;5.668;2023-09-08T05:44:00;101803.44;;;18.69;100.00
67099;BME280;54288;53.046;5.668;2023-09-08T05:46:26;101808.72;;;18.71;100.00
67099;BME280;54288;53.046;5.668;2023-09-08T05:48:51;101810.25;;;18.76;100.00
67099;BME280;54288;53.046;5.668;2023-09-08T05:51:17;101804.94;;;18.76;100.00
67099;BME280;54288;53.046;5.668;2023-09-08T05:53:42;101812.75;;;18.81;100.00
67099;BME280;54288;53.046;5.668;2023-09-08T05:56:08;101803.84;;;18.82;100.00
67099;BME280;54288;53.046;5.668;2023-09-08T05:58:34;101814.34;;;18.85;100.00
67099;BME280;54288;53.046;5.668;2023-09-08T06:01:08;101806.03;;;18.94;100.00
67099;BME280;54288;53.046;5.668;2023-09-08T06:03:34;101807.56;;;18.99;100.00
67099;BME280;54288;53.046;5.668;2023-09-08T06:05:59;101809.16;;;19.03;100.00
67099;BME280;54288;53.046;5.668;2023-09-08T06:08:25;101810.28;;;19.21;100.00
67099;BME280;54288;53.046;5.668;2023-09-08T06:10:51;101812.03;;;19.42;100.00
67099;BME280;54288;53.046;5.668;2023-09-08T06:13:16;101835.84;;;19.65;99.56
67099;BME280;54288;53.046;5.668;2023-09-08T06:15:42;101817.34;;;19.63;98.58
67099;BME280;54288;53.046;5.668;2023-09-08T06:18:08;101830.78;;;19.80;98.17
67099;BME280;54288;53.046;5.668;2023-09-08T06:20:33;101831.75;;;19.78;97.99
67099;BME280;54288;53.046;5.668;2023-09-08T06:22:59;101820.81;;;19.85;97.05
67099;BME280;54288;53.046;5.668;2023-09-08T06:25:26;101825.53;;;20.19;96.03
67099;BME280;54288;53.046;5.668;2023-09-08T06:27:53;101827.97;;;20.43;94.55
67099;BME280;54288;53.046;5.668;2023-09-08T06:30:19;101819.94;;;20.45;93.81
67099;BME280;54288;53.046;5.668;2023-09-08T06:32:50;101823.19;;;20.70;92.84
67099;BME280;54288;53.046;5.668;2023-09-08T06:35:26;101816.41;;;20.81;91.87
67099;BME280;54288;53.046;5.668;2023-09-08T06:37:52;101813.63;;;21.03;90.77
67099;BME280;54288;53.046;5.668;2023-09-08T06:40:20;101835.53;;;21.26;90.02
67099;BME280;54288;53.046;5.668;2023-09-08T06:42:46;101841.63;;;21.47;88.99
67099;BME280;54288;53.046;5.668;2023-09-08T06:45:12;101835.19;;;21.69;87.92
67099;BME280;54288;53.046;5.668;2023-09-08T06:48:08;101842.94;;;21.91;86.56
67099;BME280;54288;53.046;5.668;2023-09-08T06:50:36;101846.72;;;22.04;86.03
67099;BME280;54288;53.046;5.668;2023-09-08T06:53:14;101821.84;;;22.03;85.81
67099;BME280;54288;53.046;5.668;2023-09-08T06:55:58;101822.16;;;22.14;85.26
67099;BME280;54288;53.046;5.668;2023-09-08T07:01:18;101823.75;;;22.51;83.80
67099;BME280;54288;53.046;5.668;2023-09-08T07:03:49;101818.44;;;22.66;83.01
67099;BME280;54288;53.046;5.668;2023-09-08T07:06:17;101824.88;;;22.62;82.91
67099;BME280;54288;53.046;5.668;2023-09-08T07:08:42;101846.22;;;22.95;82.68
67099;BME280;54288;53.046;5.668;2023-09-08T07:11:10;101817.16;;;22.89;81.01
67099;BME280;54288;53.046;5.668;2023-09-08T07:13:36;101847.84;;;22.82;81.45
67099;BME280;54288;53.046;5.668;2023-09-08T07:16:05;101832.34;;;22.88;82.05
67099;BME280;54288;53.046;5.668;2023-09-08T07:18:31;101823.63;;;22.85;82.06
67099;BME280;54288;53.046;5.668;2023-09-08T07:21:01;101837.59;;;22.90;82.00
67099;BME280;54288;53.046;5.668;2023-09-08T07:23:34;101843.44;;;23.12;82.28
67099;BME280;54288;53.046;5.668;2023-09-08T07:26:03;101838.81;;;23.15;81.61
67099;BME280;54288;53.046;5.668;2023-09-08T07:28:41;101839.69;;;23.31;81.41
67099;BME280;54288;53.046;5.668;2023-09-08T07:31:16;101846.72;;;23.63;80.36
67099;BME280;54288;53.046;5.668;2023-09-08T07:33:42;101840.84;;;24.02;78.92
67099;BME280;54288;53.046;5.668;2023-09-08T07:36:08;101844.16;;;24.49;77.36
67099;BME280;54288;53.046;5.668;2023-09-08T07:38:34;101855.72;;;24.35;75.76
67099;BME280;54288;53.046;5.668;2023-09-08T07:41:01;101852.75;;;24.26;76.00
67099;BME280;54288;53.046;5.668;2023-09-08T07:43:27;101850.47;;;24.34;74.70
67099;BME280;54288;53.046;5.668;2023-09-08T07:45:53;101837.63;;;24.53;74.44
67099;BME280;54288;53.046;5.668;2023-09-08T07:48:19;101835.00;;;24.67;73.89
67099;BME280;54288;53.046;5.668;2023-09-08T07:50:44;101834.72;;;24.71;71.99
67099;BME280;54288;53.046;5.668;2023-09-08T07:53:10;101829.94;;;24.76;72.12
67099;BME280;54288;53.046;5.668;2023-09-08T07:55:36;101816.53;;;24.76;73.27
67099;BME280;54288;53.046;5.668;2023-09-08T07:58:02;101822.56;;;24.80;73.05
67099;BME280;54288;53.046;5.668;2023-09-08T08:00:29;101825.56;;;25.02;71.41
67099;BME280;54288;53.046;5.668;2023-09-08T08:02:57;101834.44;;;24.62;71.31
67099;BME280;54288;53.046;5.668;2023-09-08T08:05:24;101822.72;;;24.91;71.06
67099;BME280;54288;53.046;5.668;2023-09-08T08:07:50;101828.59;;;25.24;70.04
67099;BME280;54288;53.046;5.668;2023-09-08T08:10:16;101824.16;;;25.37;70.02
67099;BME280;54288;53.046;5.668;2023-09-08T08:12:42;101831.38;;;25.49;69.61
67099;BME280;54288;53.046;5.668;2023-09-08T08:15:09;101827.00;;;25.48;68.62
67099;BME280;54288;53.046;5.668;2023-09-08T08:17:36;101825.84;;;25.52;69.31
67099;BME280;54288;53.046;5.668;2023-09-08T08:20:04;101817.00;;;25.50;68.48
67099;BME280;54288;53.046;5.668;2023-09-08T08:22:42;101829.59;;;25.62;67.63
67099;BME280;54288;53.046;5.668;2023-09-08T08:25:08;101821.69;;;25.60;67.23
67099;BME280;54288;53.046;5.668;2023-09-08T08:27:33;101828.13;;;25.70;66.81
67099;BME280;54288;53.046;5.668;2023-09-08T08:30:00;101814.97;;;25.53;66.75
67099;BME280;54288;53.046;5.668;2023-09-08T08:32:29;101816.81;;;25.53;67.39
67099;BME280;54288;53.046;5.668;2023-09-08T08:34:55;101811.03;;;25.59;68.89
67099;BME280;54288;53.046;5.668;2023-09-08T08:37:22;101813.78;;;25.84;69.42
67099;BME280;54288;53.046;5.668;2023-09-08T08:39:48;101807.84;;;26.05;68.34
67099;BME280;54288;53.046;5.668;2023-09-08T08:42:13;101812.13;;;25.95;68.32
67099;BME280;54288;53.046;5.668;2023-09-08T08:44:40;101788.34;;;25.89;68.72
67099;BME280;54288;53.046;5.668;2023-09-08T08:47:07;101807.16;;;26.02;69.24
67099;BME280;54288;53.046;5.668;2023-09-08T08:49:33;101803.13;;;26.09;68.77
67099;BME280;54288;53.046;5.668;2023-09-08T08:52:00;101807.91;;;25.91;68.69
67099;BME280;54288;53.046;5.668;2023-09-08T08:54:34;101811.38;;;26.06;69.21
67099;BME280;54288;53.046;5.668;2023-09-08T08:57:00;101808.34;;;26.10;68.49
67099;BME280;54288;53.046;5.668;2023-09-08T08:59:27;101811.94;;;26.23;68.14
67099;BME280;54288;53.046;5.668;2023-09-08T09:01:54;101828.34;;;26.19;68.16
67099;BME280;54288;53.046;5.668;2023-09-08T09:04:21;101810.72;;;26.27;67.89
67099;BME280;54288;53.046;5.668;2023-09-08T09:06:47;101822.25;;;26.42;67.48
67099;BME280;54288;53.046;5.668;2023-09-08T09:09:12;101822.53;;;26.50;66.22
67099;BME280;54288;53.046;5.668;2023-09-08T09:11:40;101823.75;;;26.71;65.64
67099;BME280;54288;53.046;5.668;2023-09-08T09:14:05;101817.59;;;26.69;65.63
67099;BME280;54288;53.046;5.668;2023-09-08T09:16:38;101822.97;;;26.81;64.93
67099;BME280;54288;53.046;5.668;2023-09-08T09:19:04;101822.03;;;27.06;64.89
67099;BME280;54288;53.046;5.668;2023-09-08T09:21:47;101819.06;;;27.34;64.18
67099;BME280;54288;53.046;5.668;2023-09-08T09:24:16;101821.81;;;27.45;63.30
67099;BME280;54288;53.046;5.668;2023-09-08T09:26:42;101825.22;;;27.47;62.46
67099;BME280;54288;53.046;5.668;2023-09-08T09:29:14;101823.00;;;27.64;62.20
67099;BME280;54288;53.046;5.668;2023-09-08T09:32:11;101825.44;;;27.91;61.48
67099;BME280;54288;53.046;5.668;2023-09-08T09:34:48;101824.84;;;27.87;60.92
67099;BME280;54288;53.046;5.668;2023-09-08T09:37:15;101835.19;;;27.81;60.37
67099;BME280;54288;53.046;5.668;2023-09-08T09:39:40;101829.56;;;27.84;60.42
67099;BME280;54288;53.046;5.668;2023-09-08T09:42:06;101820.44;;;27.97;60.01
67099;BME280;54288;53.046;5.668;2023-09-08T09:44:32;101825.09;;;27.95;59.85
67099;BME280;54288;53.046;5.668;2023-09-08T09:47:00;101828.44;;;28.21;59.71
67099;BME280;54288;53.046;5.668;2023-09-08T09:49:26;101823.00;;;28.44;59.30
67099;BME280;54288;53.046;5.668;2023-09-08T09:51:58;101819.94;;;28.71;58.37
67099;BME280;54288;53.046;5.668;2023-09-08T09:54:24;101815.88;;;28.87;57.53
67099;BME280;54288;53.046;5.668;2023-09-08T09:56:49;101825.06;;;29.07;56.90
67099;BME280;54288;53.046;5.668;2023-09-08T09:59:17;101815.13;;;29.18;56.68
67099;BME280;54288;53.046;5.668;2023-09-08T10:01:43;101821.19;;;29.42;55.86
67099;BME280;54288;53.046;5.668;2023-09-08T10:04:09;101820.19;;;29.54;55.91
67099;BME280;54288;53.046;5.668;2023-09-08T10:06:37;101811.50;;;29.40;55.84
67099;BME280;54288;53.046;5.668;2023-09-08T10:09:05;101817.50;;;29.43;55.47
67099;BME280;54288;53.046;5.668;2023-09-08T10:11:49;101817.28;;;29.78;55.09
67099;BME280;54288;53.046;5.668;2023-09-08T10:14:16;101814.34;;;29.70;54.34
67099;BME280;54288;53.046;5.668;2023-09-08T10:16:45;101813.16;;;29.52;55.23
67099;BME280;54288;53.046;5.668;2023-09-08T10:19:16;101814.94;;;29.73;54.96
67099;BME280;54288;53.046;5.668;2023-09-08T10:21:45;101808.38;;;29.87;54.78
67099;BME280;54288;53.046;5.668;2023-09-08T10:24:15;101816.75;;;30.04;54.10
67099;BME280;54288;53.046;5.668;2023-09-08T10:26:44;101812.50;;;29.70;54.60
67099;BME280;54288;53.046;5.668;2023-09-08T10:29:12;101814.09;;;29.73;55.28
67099;BME280;54288;53.046;5.668;2023-09-08T10:31:39;101820.03;;;29.87;54.67
67099;BME280;54288;53.046;5.668;2023-09-08T10:34:06;101820.81;;;29.99;53.97
67099;BME280;54288;53.046;5.668;2023-09-08T10:36:34;101813.59;;;30.20;53.53
67099;BME280;54288;53.046;5.668;2023-09-08T10:47:22;101802.13;;;30.07;53.92
67099;BME280;54288;53.046;5.668;2023-09-08T10:49:50;101807.16;;;30.11;54.20
67099;BME280;54288;53.046;5.668;2023-09-08T10:52:21;101805.91;;;30.15;53.79
67099;BME280;54288;53.046;5.668;2023-09-08T10:54:49;101808.03;;;30.12;54.20
67099;BME280;54288;53.046;5.668;2023-09-08T10:57:17;101810.16;;;30.38;53.48
67099;BME280;54288;53.046;5.668;2023-09-08T11:00:02;101815.00;;;30.65;52.97
67099;BME280;54288;53.046;5.668;2023-09-08T11:05:06;101809.81;;;30.62;52.44
67099;BME280;54288;53.046;5.668;2023-09-08T11:07:32;101815.06;;;30.54;52.19
67099;BME280;54288;53.046;5.668;2023-09-08T11:09:59;101813.53;;;30.31;52.14
67099;BME280;54288;53.046;5.668;2023-09-08T11:12:28;101818.81;;;30.32;52.08
67099;BME280;54288;53.046;5.668;2023-09-08T11:14:54;101816.72;;;30.66;52.14
67099;BME280;54288;53.046;5.668;2023-09-08T11:17:20;101807.59;;;30.67;51.25
67099;BME280;54288;53.046;5.668;2023-09-08T11:19:48;101809.63;;;30.74;51.23
67099;BME280;54288;53.046;5.668;2023-09-08T11:22:15;101808.00;;;31.02;50.81
67099;BME280;54288;53.046;5.668;2023-09-08T11:24:42;101809.13;;;30.99;50.63
67099;BME280;54288;53.046;5.668;2023-09-08T11:27:10;101805.25;;;30.83;49.33
67099;BME280;54288;53.046;5.668;2023-09-08T11:29:36;101811.94;;;30.88;50.27
67099;BME280;54288;53.046;5.668;2023-09-08T11:32:03;101806.06;;;30.74;49.80
67099;BME280;54288;53.046;5.668;2023-09-08T11:34:29;101802.66;;;31.21;49.41
67099;BME280;54288;53.046;5.668;2023-09-08T11:36:56;101809.41;;;31.45;49.02
67099;BME280;54288;53.046;5.668;2023-09-08T11:39:25;101811.66;;;31.69;48.37
67099;BME280;54288;53.046;5.668;2023-09-08T11:41:52;101799.97;;;31.40;47.85
67099;BME280;54288;53.046;5.668;2023-09-08T11:44:18;101808.53;;;31.54;47.59
67099;BME280;54288;53.046;5.668;2023-09-08T11:46:45;101799.00;;;31.69;46.70
67099;BME280;54288;53.046;5.668;2023-09-08T11:49:11;101807.56;;;31.84;46.50
67099;BME280;54288;53.046;5.668;2023-09-08T11:51:36;101812.53;;;31.98;45.93
67099;BME280;54288;53.046;5.668;2023-09-08T11:54:03;101806.53;;;31.94;46.38
67099;BME280;54288;53.046;5.668;2023-09-08T11:56:29;101806.69;;;31.93;46.54
67099;BME280;54288;53.046;5.668;2023-09-08T11:58:57;101804.41;;;31.69;46.74
67099;BME280;54288;53.046;5.668;2023-09-08T12:01:23;101806.69;;;31.93;46.68
67099;BME280;54288;53.046;5.668;2023-09-08T12:03:54;101802.34;;;32.28;46.12
67099;BME280;54288;53.046;5.668;2023-09-08T12:06:20;101796.94;;;32.28;46.29
67099;BME280;54288;53.046;5.668;2023-09-08T12:08:48;101798.63;;;32.20;46.19
67099;BME280;54288;53.046;5.668;2023-09-08T12:11:14;101800.94;;;32.34;46.54
67099;BME280;54288;53.046;5.668;2023-09-08T12:13:39;101796.09;;;32.09;46.70
67099;BME280;54288;53.046;5.668;2023-09-08T12:16:21;101792.41;;;32.00;46.71
67099;BME280;54288;53.046;5.668;2023-09-08T12:18:50;101794.81;;;32.13;46.80
67099;BME280;54288;53.046;5.668;2023-09-08T12:21:16;101790.22;;;32.32;46.84
67099;BME280;54288;53.046;5.668;2023-09-08T12:23:49;101783.00;;;32.04;46.75
67099;BME280;54288;53.046;5.668;2023-09-08T12:26:15;101776.88;;;32.02;46.49
67099;BME280;54288;53.046;5.668;2023-09-08T12:28:42;101781.13;;;32.05;46.78
67099;BME280;54288;53.046;5.668;2023-09-08T12:31:09;101789.22;;;32.33;46.41
67099;BME280;54288;53.046;5.668;2023-09-08T12:33:35;101787.69;;;32.58;46.47
67099;BME280;54288;53.046;5.668;2023-09-08T12:36:18;101784.63;;;32.80;45.41
67099;BME280;54288;53.046;5.668;2023-09-08T12:38:48;101779.00;;;32.91;45.42
67099;BME280;54288;53.046;5.668;2023-09-08T12:41:14;101777.03;;;32.83;44.99
67099;BME280;54288;53.046;5.668;2023-09-08T12:43:40;101777.47;;;32.79;44.74
67099;BME280;54288;53.046;5.668;2023-09-08T12:46:05;101766.44;;;33.07;44.95
67099;BME280;54288;53.046;5.668;2023-09-08T12:48:31;101770.53;;;32.94;44.81
67099;BME280;54288;53.046;5.668;2023-09-08T12:50:56;101774.19;;;33.02;44.87
67099;BME280;54288;53.046;5.668;2023-09-08T12:53:22;101771.41;;;33.12;45.43
67099;BME280;54288;53.046;5.668;2023-09-08T12:55:48;101769.53;;;33.12;43.64
67099;BME280;54288;53.046;5.668;2023-09-08T12:58:15;101770.59;;;33.29;43.89
67099;BME280;54288;53.046;5.668;2023-09-08T13:00:41;101771.84;;;33.34;43.54